sensor_id;sensor_type;location;lat;lon;timestamp;P1;durP1;ratioP1;P2;durP2;ratioP2
15293;SDS011;7748;52.474;13.454;2023-03-01T00:01:15;26.77;;;14.30;;
15293;SDS011;7748;52.474;13.454;2023-03-01T00:03:44;29.42;;;15.63;;
15293;SDS011;7748;52.474;13.454;2023-03-01T00:06:11;23.15;;;12.95;;
15293;SDS011;7748;52.474;13.454;2023-03-01T00:08:40;21.42;;;12.65;;
15293;SDS011;7748;52.474;13.454;2023-03-01T00:11:10;20.75;;;11.35;;
15293;SDS011;7748;52.474;13.454;2023-03-01T00:13:42;24.00;;;12.48;;
15293;SDS011;7748;52.474;13.454;2023-03-01T00:16:16;21.70;;;11.73;;
15293;SDS011;7748;52.474;13.454;2023-03-01T00:18:45;21.90;;;12.98;;
15293;SDS011;7748;52.474;13.454;2023-03-01T00:21:13;22.27;;;12.25;;
15293;SDS011;7748;52.474;13.454;2023-03-01T00:23:41;21.75;;;12.02;;
15293;SDS011;7748;52.474;13.454;2023-03-01T00:26:10;25.10;;;12.60;;
15293;SDS011;7748;52.474;13.454;2023-03-01T00:28:42;20.55;;;13.45;;
15293;SDS011;7748;52.474;13.454;2023-03-01T00:31:10;19.77;;;13.02;;
15293;SDS011;7748;52.474;13.454;2023-03-01T00:33:40;22.20;;;13.15;;
15293;SDS011;7748;52.474;13.454;2023-03-01T00:36:09;25.55;;;13.60;;
15293;SDS011;7748;52.474;13.454;2023-03-01T00:38:38;28.15;;;14.48;;
15293;SDS011;7748;52.474;13.454;2023-03-01T00:41:08;25.02;;;14.00;;
15293;SDS011;7748;52.474;13.454;2023-03-01T00:43:37;28.15;;;14.70;;
15293;SDS011;7748;52.474;13.454;2023-03-01T00:46:07;30.33;;;15.20;;
15293;SDS011;7748;52.474;13.454;2023-03-01T00:48:36;29.02;;;15.00;;
15293;SDS011;7748;52.474;13.454;2023-03-01T00:51:05;34.15;;;16.00;;
15293;SDS011;7748;52.474;13.454;2023-03-01T00:53:34;25.40;;;15.38;;
15293;SDS011;7748;52.474;13.454;2023-03-01T00:56:03;29.58;;;15.70;;
15293;SDS011;7748;52.474;13.454;2023-03-01T00:58:33;25.08;;;15.05;;
15293;SDS011;7748;52.474;13.454;2023-03-01T01:01:06;22.55;;;13.82;;
15293;SDS011;7748;52.474;13.454;2023-03-01T01:03:44;20.33;;;12.98;;
15293;SDS011;7748;52.474;13.454;2023-03-01T01:06:14;25.40;;;12.00;;
15293;SDS011;7748;52.474;13.454;2023-03-01T01:08:43;21.40;;;13.40;;
15293;SDS011;7748;52.474;13.454;2023-03-01T01:11:11;20.00;;;11.48;;
15293;SDS011;7748;52.474;13.454;2023-03-01T01:13:39;23.83;;;12.68;;
15293;SDS011;7748;52.474;13.454;2023-03-01T01:16:09;24.33;;;12.98;;
15293;SDS011;7748;52.474;13.454;2023-03-01T01:18:37;18.08;;;11.00;;
15293;SDS011;7748;52.474;13.454;2023-03-01T01:21:07;22.75;;;13.32;;
15293;SDS011;7748;52.474;13.454;2023-03-01T01:23:36;25.50;;;13.18;;
15293;SDS011;7748;52.474;13.454;2023-03-01T01:26:05;21.00;;;13.27;;
15293;SDS011;7748;52.474;13.454;2023-03-01T01:28:34;20.58;;;13.32;;
15293;SDS011;7748;52.474;13.454;2023-03-01T01:31:01;27.45;;;13.65;;
15293;SDS011;7748;52.474;13.454;2023-03-01T01:33:31;20.38;;;13.43;;
15293;SDS011;7748;52.474;13.454;2023-03-01T01:35:59;24.55;;;12.60;;
15293;SDS011;7748;52.474;13.454;2023-03-01T01:38:27;25.67;;;13.23;;
15293;SDS011;7748;52.474;13.454;2023-03-01T01:40:55;20.73;;;12.43;;
15293;SDS011;7748;52.474;13.454;2023-03-01T01:43:24;26.63;;;13.40;;
15293;SDS011;7748;52.474;13.454;2023-03-01T01:45:54;20.23;;;12.77;;
15293;SDS011;7748;52.474;13.454;2023-03-01T01:48:24;24.13;;;14.40;;
15293;SDS011;7748;52.474;13.454;2023-03-01T01:51:09;23.95;;;12.82;;
15293;SDS011;7748;52.474;13.454;2023-03-01T01:53:40;25.52;;;13.75;;
15293;SDS011;7748;52.474;13.454;2023-03-01T01:56:11;25.17;;;14.70;;
15293;SDS011;7748;52.474;13.454;2023-03-01T01:58:42;24.65;;;14.35;;
15293;SDS011;7748;52.474;13.454;2023-03-01T02:01:11;23.23;;;14.07;;
15293;SDS011;7748;52.474;13.454;2023-03-01T02:03:39;21.90;;;12.75;;
15293;SDS011;7748;52.474;13.454;2023-03-01T02:06:15;25.08;;;13.27;;
15293;SDS011;7748;52.474;13.454;2023-03-01T02:08:49;18.52;;;11.68;;
15293;SDS011;7748;52.474;13.454;2023-03-01T02:11:20;23.90;;;14.60;;
15293;SDS011;7748;52.474;13.454;2023-03-01T02:13:48;30.80;;;17.85;;
15293;SDS011;7748;52.474;13.454;2023-03-01T02:16:16;33.15;;;21.42;;
15293;SDS011;7748;52.474;13.454;2023-03-01T02:18:44;29.50;;;18.10;;
15293;SDS011;7748;52.474;13.454;2023-03-01T02:21:17;27.15;;;16.60;;
15293;SDS011;7748;52.474;13.454;2023-03-01T02:23:56;32.03;;;17.23;;
15293;SDS011;7748;52.474;13.454;2023-03-01T02:26:29;31.67;;;18.45;;
15293;SDS011;7748;52.474;13.454;2023-03-01T02:29:04;32.33;;;20.13;;
15293;SDS011;7748;52.474;13.454;2023-03-01T02:31:32;36.60;;;19.90;;
15293;SDS011;7748;52.474;13.454;2023-03-01T02:34:11;33.92;;;18.58;;
15293;SDS011;7748;52.474;13.454;2023-03-01T02:36:42;29.02;;;16.70;;
15293;SDS011;7748;52.474;13.454;2023-03-01T02:39:14;30.70;;;16.70;;
15293;SDS011;7748;52.474;13.454;2023-03-01T02:41:45;26.05;;;15.38;;
15293;SDS011;7748;52.474;13.454;2023-03-01T02:44:16;24.67;;;14.57;;
15293;SDS011;7748;52.474;13.454;2023-03-01T02:46:45;22.27;;;15.00;;
15293;SDS011;7748;52.474;13.454;2023-03-01T02:49:19;28.52;;;14.85;;
15293;SDS011;7748;52.474;13.454;2023-03-01T02:52:01;24.38;;;13.07;;
15293;SDS011;7748;52.474;13.454;2023-03-01T02:54:52;21.90;;;14.40;;
15293;SDS011;7748;52.474;13.454;2023-03-01T02:57:26;21.95;;;14.70;;
15293;SDS011;7748;52.474;13.454;2023-03-01T02:59:57;23.10;;;14.30;;
15293;SDS011;7748;52.474;13.454;2023-03-01T03:02:33;24.77;;;14.32;;
15293;SDS011;7748;52.474;13.454;2023-03-01T03:05:05;26.02;;;14.40;;
15293;SDS011;7748;52.474;13.454;2023-03-01T03:07:36;24.75;;;14.88;;
15293;SDS011;7748;52.474;13.454;2023-03-01T03:10:07;24.73;;;15.98;;
15293;SDS011;7748;52.474;13.454;2023-03-01T03:12:37;37.03;;;16.52;;
15293;SDS011;7748;52.474;13.454;2023-03-01T03:15:07;29.15;;;15.90;;
15293;SDS011;7748;52.474;13.454;2023-03-01T03:17:39;29.40;;;16.98;;
15293;SDS011;7748;52.474;13.454;2023-03-01T03:20:11;31.30;;;17.23;;
15293;SDS011;7748;52.474;13.454;2023-03-01T03:22:45;28.58;;;18.20;;
15293;SDS011;7748;52.474;13.454;2023-03-01T03:25:14;26.83;;;16.48;;
15293;SDS011;7748;52.474;13.454;2023-03-01T03:27:46;26.65;;;16.77;;
15293;SDS011;7748;52.474;13.454;2023-03-01T03:30:18;35.92;;;19.38;;
15293;SDS011;7748;52.474;13.454;2023-03-01T03:32:47;32.03;;;17.80;;
15293;SDS011;7748;52.474;13.454;2023-03-01T03:35:19;34.40;;;17.33;;
15293;SDS011;7748;52.474;13.454;2023-03-01T03:37:47;32.88;;;18.27;;
15293;SDS011;7748;52.474;13.454;2023-03-01T03:40:33;32.83;;;18.20;;
15293;SDS011;7748;52.474;13.454;2023-03-01T03:43:03;30.95;;;17.50;;
15293;SDS011;7748;52.474;13.454;2023-03-01T03:45:34;29.33;;;16.42;;
15293;SDS011;7748;52.474;13.454;2023-03-01T03:48:02;30.88;;;16.92;;
15293;SDS011;7748;52.474;13.454;2023-03-01T03:50:32;35.70;;;19.05;;
15293;SDS011;7748;52.474;13.454;2023-03-01T03:53:00;26.42;;;17.73;;
15293;SDS011;7748;52.474;13.454;2023-03-01T03:55:30;32.42;;;18.88;;
15293;SDS011;7748;52.474;13.454;2023-03-01T03:58:00;34.55;;;18.30;;
15293;SDS011;7748;52.474;13.454;2023-03-01T04:00:34;29.88;;;18.75;;
15293;SDS011;7748;52.474;13.454;2023-03-01T04:03:03;35.88;;;18.90;;
15293;SDS011;7748;52.474;13.454;2023-03-01T04:05:31;31.55;;;19.50;;
15293;SDS011;7748;52.474;13.454;2023-03-01T04:07:59;27.45;;;17.25;;
15293;SDS011;7748;52.474;13.454;2023-03-01T04:10:34;29.42;;;18.77;;
15293;SDS011;7748;52.474;13.454;2023-03-01T04:13:03;39.45;;;20.35;;
15293;SDS011;7748;52.474;13.454;2023-03-01T04:15:33;29.38;;;18.10;;
15293;SDS011;7748;52.474;13.454;2023-03-01T04:18:02;27.80;;;16.20;;
15293;SDS011;7748;52.474;13.454;2023-03-01T04:20:32;27.33;;;16.45;;
15293;SDS011;7748;52.474;13.454;2023-03-01T04:23:02;30.95;;;17.13;;
15293;SDS011;7748;52.474;13.454;2023-03-01T04:25:40;28.75;;;17.30;;
15293;SDS011;7748;52.474;13.454;2023-03-01T04:28:09;25.50;;;16.75;;
15293;SDS011;7748;52.474;13.454;2023-03-01T04:30:38;25.42;;;15.85;;
15293;SDS011;7748;52.474;13.454;2023-03-01T04:33:08;26.73;;;15.38;;
15293;SDS011;7748;52.474;13.454;2023-03-01T04:35:37;28.83;;;17.08;;
15293;SDS011;7748;52.474;13.454;2023-03-01T04:38:06;27.60;;;15.10;;
15293;SDS011;7748;52.474;13.454;2023-03-01T04:40:35;29.38;;;17.80;;
15293;SDS011;7748;52.474;13.454;2023-03-01T04:43:03;25.38;;;17.23;;
15293;SDS011;7748;52.474;13.454;2023-03-01T04:45:32;28.17;;;17.52;;
15293;SDS011;7748;52.474;13.454;2023-03-01T04:48:03;31.52;;;19.13;;
15293;SDS011;7748;52.474;13.454;2023-03-01T04:50:32;38.90;;;20.95;;
15293;SDS011;7748;52.474;13.454;2023-03-01T04:53:00;36.15;;;19.23;;
15293;SDS011;7748;52.474;13.454;2023-03-01T04:55:28;27.70;;;16.60;;
15293;SDS011;7748;52.474;13.454;2023-03-01T04:57:56;26.83;;;15.90;;
15293;SDS011;7748;52.474;13.454;2023-03-01T05:00:24;34.63;;;19.10;;
15293;SDS011;7748;52.474;13.454;2023-03-01T05:02:53;32.97;;;18.70;;
15293;SDS011;7748;52.474;13.454;2023-03-01T05:05:25;36.92;;;18.80;;
15293;SDS011;7748;52.474;13.454;2023-03-01T05:07:54;30.52;;;17.08;;
15293;SDS011;7748;52.474;13.454;2023-03-01T05:10:24;30.45;;;18.52;;
15293;SDS011;7748;52.474;13.454;2023-03-01T05:12:53;33.70;;;19.40;;
15293;SDS011;7748;52.474;13.454;2023-03-01T05:15:20;37.92;;;20.58;;
15293;SDS011;7748;52.474;13.454;2023-03-01T05:17:52;34.08;;;17.90;;
15293;SDS011;7748;52.474;13.454;2023-03-01T05:20:20;35.13;;;19.85;;
15293;SDS011;7748;52.474;13.454;2023-03-01T05:22:51;34.03;;;17.40;;
15293;SDS011;7748;52.474;13.454;2023-03-01T05:25:22;39.90;;;19.52;;
15293;SDS011;7748;52.474;13.454;2023-03-01T05:27:49;30.95;;;17.52;;
15293;SDS011;7748;52.474;13.454;2023-03-01T05:30:17;34.53;;;19.17;;
15293;SDS011;7748;52.474;13.454;2023-03-01T05:32:46;38.45;;;19.40;;
15293;SDS011;7748;52.474;13.454;2023-03-01T05:35:16;33.75;;;19.13;;
15293;SDS011;7748;52.474;13.454;2023-03-01T05:37:46;31.75;;;18.92;;
15293;SDS011;7748;52.474;13.454;2023-03-01T05:40:17;37.17;;;18.60;;
15293;SDS011;7748;52.474;13.454;2023-03-01T05:42:46;32.65;;;19.42;;
15293;SDS011;7748;52.474;13.454;2023-03-01T05:49:06;27.85;;;16.45;;
15293;SDS011;7748;52.474;13.454;2023-03-01T05:51:34;29.17;;;17.33;;
15293;SDS011;7748;52.474;13.454;2023-03-01T05:54:02;37.72;;;19.60;;
15293;SDS011;7748;52.474;13.454;2023-03-01T05:56:33;28.52;;;17.98;;
15293;SDS011;7748;52.474;13.454;2023-03-01T05:59:02;33.67;;;17.88;;
15293;SDS011;7748;52.474;13.454;2023-03-01T06:01:32;28.25;;;17.77;;
15293;SDS011;7748;52.474;13.454;2023-03-01T06:04:00;74.35;;;33.03;;
15293;SDS011;7748;52.474;13.454;2023-03-01T06:06:28;32.85;;;19.65;;
15293;SDS011;7748;52.474;13.454;2023-03-01T06:08:57;36.28;;;18.98;;
15293;SDS011;7748;52.474;13.454;2023-03-01T06:11:25;31.52;;;19.33;;
15293;SDS011;7748;52.474;13.454;2023-03-01T06:13:54;38.13;;;19.65;;
15293;SDS011;7748;52.474;13.454;2023-03-01T06:16:22;35.42;;;19.50;;
15293;SDS011;7748;52.474;13.454;2023-03-01T06:18:50;35.13;;;20.25;;
15293;SDS011;7748;52.474;13.454;2023-03-01T06:21:18;33.00;;;18.85;;
15293;SDS011;7748;52.474;13.454;2023-03-01T06:23:45;41.13;;;20.15;;
15293;SDS011;7748;52.474;13.454;2023-03-01T06:26:13;32.55;;;18.92;;
15293;SDS011;7748;52.474;13.454;2023-03-01T06:28:48;40.28;;;20.02;;
15293;SDS011;7748;52.474;13.454;2023-03-01T06:31:18;40.28;;;19.98;;
15293;SDS011;7748;52.474;13.454;2023-03-01T06:33:46;34.90;;;19.42;;
15293;SDS011;7748;52.474;13.454;2023-03-01T06:36:14;40.38;;;22.33;;
15293;SDS011;7748;52.474;13.454;2023-03-01T06:38:45;42.47;;;21.42;;
15293;SDS011;7748;52.474;13.454;2023-03-01T06:41:13;44.00;;;20.20;;
15293;SDS011;7748;52.474;13.454;2023-03-01T06:43:41;35.40;;;20.73;;
15293;SDS011;7748;52.474;13.454;2023-03-01T06:46:09;38.67;;;21.50;;
15293;SDS011;7748;52.474;13.454;2023-03-01T06:48:38;36.13;;;22.55;;
15293;SDS011;7748;52.474;13.454;2023-03-01T06:56:24;36.47;;;20.20;;
15293;SDS011;7748;52.474;13.454;2023-03-01T07:02:21;38.63;;;18.85;;
15293;SDS011;7748;52.474;13.454;2023-03-01T07:04:59;35.63;;;19.70;;
15293;SDS011;7748;52.474;13.454;2023-03-01T07:10:32;35.22;;;20.55;;
15293;SDS011;7748;52.474;13.454;2023-03-01T07:13:11;30.38;;;19.40;;
15293;SDS011;7748;52.474;13.454;2023-03-01T07:16:07;36.13;;;21.00;;
15293;SDS011;7748;52.474;13.454;2023-03-01T07:18:37;35.47;;;20.13;;
15293;SDS011;7748;52.474;13.454;2023-03-01T07:21:41;51.58;;;21.75;;
15293;SDS011;7748;52.474;13.454;2023-03-01T07:27:44;39.67;;;20.40;;
15293;SDS011;7748;52.474;13.454;2023-03-01T07:33:41;29.85;;;19.55;;
15293;SDS011;7748;52.474;13.454;2023-03-01T07:41:37;33.60;;;17.63;;
15293;SDS011;7748;52.474;13.454;2023-03-01T07:45:05;41.35;;;19.70;;
15293;SDS011;7748;52.474;13.454;2023-03-01T07:48:39;33.05;;;16.83;;
15293;SDS011;7748;52.474;13.454;2023-03-01T07:51:09;32.47;;;18.58;;
15293;SDS011;7748;52.474;13.454;2023-03-01T07:53:38;42.20;;;18.70;;
15293;SDS011;7748;52.474;13.454;2023-03-01T07:56:07;32.30;;;18.00;;
15293;SDS011;7748;52.474;13.454;2023-03-01T07:58:38;34.30;;;17.02;;
15293;SDS011;7748;52.474;13.454;2023-03-01T08:01:10;40.10;;;18.70;;
15293;SDS011;7748;52.474;13.454;2023-03-01T08:03:39;37.42;;;19.00;;
15293;SDS011;7748;52.474;13.454;2023-03-01T08:06:08;29.38;;;16.23;;
15293;SDS011;7748;52.474;13.454;2023-03-01T08:08:37;38.25;;;17.98;;
15293;SDS011;7748;52.474;13.454;2023-03-01T08:11:06;33.65;;;16.80;;
15293;SDS011;7748;52.474;13.454;2023-03-01T08:13:38;37.00;;;16.58;;
15293;SDS011;7748;52.474;13.454;2023-03-01T08:16:10;31.33;;;16.77;;
15293;SDS011;7748;52.474;13.454;2023-03-01T08:18:39;38.95;;;16.45;;
15293;SDS011;7748;52.474;13.454;2023-03-01T08:21:08;39.88;;;16.00;;
15293;SDS011;7748;52.474;13.454;2023-03-01T08:23:38;26.00;;;15.35;;
15293;SDS011;7748;52.474;13.454;2023-03-01T08:26:07;37.63;;;16.52;;
15293;SDS011;7748;52.474;13.454;2023-03-01T08:28:41;39.80;;;17.08;;
15293;SDS011;7748;52.474;13.454;2023-03-01T08:31:16;31.73;;;15.47;;
15293;SDS011;7748;52.474;13.454;2023-03-01T08:33:45;38.50;;;15.10;;
15293;SDS011;7748;52.474;13.454;2023-03-01T08:36:17;28.05;;;14.88;;
15293;SDS011;7748;52.474;13.454;2023-03-01T08:39:00;30.73;;;15.57;;
15293;SDS011;7748;52.474;13.454;2023-03-01T08:41:50;30.10;;;14.87;;
15293;SDS011;7748;52.474;13.454;2023-03-01T08:44:31;29.97;;;14.37;;
15293;SDS011;7748;52.474;13.454;2023-03-01T08:46:59;26.40;;;12.33;;
15293;SDS011;7748;52.474;13.454;2023-03-01T08:49:28;58.50;;;14.73;;
15293;SDS011;7748;52.474;13.454;2023-03-01T08:51:56;27.70;;;14.80;;
15293;SDS011;7748;52.474;13.454;2023-03-01T08:54:24;19.10;;;11.40;;
15293;SDS011;7748;52.474;13.454;2023-03-01T08:56:52;19.93;;;10.73;;
15293;SDS011;7748;52.474;13.454;2023-03-01T08:59:27;15.70;;;9.50;;
15293;SDS011;7748;52.474;13.454;2023-03-01T09:04:50;22.57;;;10.83;;
15293;SDS011;7748;52.474;13.454;2023-03-01T09:07:18;18.57;;;9.57;;
15293;SDS011;7748;52.474;13.454;2023-03-01T09:09:46;23.10;;;9.83;;
15293;SDS011;7748;52.474;13.454;2023-03-01T09:12:14;15.20;;;8.33;;
15293;SDS011;7748;52.474;13.454;2023-03-01T09:14:41;13.10;;;7.90;;
15293;SDS011;7748;52.474;13.454;2023-03-01T09:17:09;10.87;;;7.60;;
15293;SDS011;7748;52.474;13.454;2023-03-01T09:19:39;13.93;;;8.00;;
15293;SDS011;7748;52.474;13.454;2023-03-01T09:22:07;17.23;;;9.10;;
15293;SDS011;7748;52.474;13.454;2023-03-01T09:24:34;14.37;;;7.17;;
15293;SDS011;7748;52.474;13.454;2023-03-01T09:27:02;9.70;;;4.80;;
15293;SDS011;7748;52.474;13.454;2023-03-01T09:29:37;7.20;;;5.00;;
15293;SDS011;7748;52.474;13.454;2023-03-01T09:32:04;9.20;;;4.60;;
15293;SDS011;7748;52.474;13.454;2023-03-01T09:34:34;12.73;;;7.00;;
15293;SDS011;7748;52.474;13.454;2023-03-01T09:37:23;13.07;;;6.77;;
15293;SDS011;7748;52.474;13.454;2023-03-01T09:39:51;15.57;;;7.97;;
15293;SDS011;7748;52.474;13.454;2023-03-01T09:42:19;22.47;;;8.23;;
15293;SDS011;7748;52.474;13.454;2023-03-01T09:44:48;25.60;;;8.07;;
15293;SDS011;7748;52.474;13.454;2023-03-01T09:47:19;22.53;;;6.70;;
15293;SDS011;7748;52.474;13.454;2023-03-01T09:49:53;15.23;;;6.47;;
15293;SDS011;7748;52.474;13.454;2023-03-01T09:52:32;12.37;;;7.87;;
15293;SDS011;7748;52.474;13.454;2023-03-01T09:55:08;15.70;;;8.20;;
15293;SDS011;7748;52.474;13.454;2023-03-01T09:57:41;11.17;;;6.60;;
15293;SDS011;7748;52.474;13.454;2023-03-01T10:00:23;10.40;;;5.57;;
15293;SDS011;7748;52.474;13.454;2023-03-01T10:03:03;8.83;;;6.23;;
15293;SDS011;7748;52.474;13.454;2023-03-01T10:05:44;12.83;;;6.73;;
15293;SDS011;7748;52.474;13.454;2023-03-01T10:08:31;13.17;;;6.53;;
15293;SDS011;7748;52.474;13.454;2023-03-01T10:11:15;10.37;;;6.30;;
15293;SDS011;7748;52.474;13.454;2023-03-01T10:13:51;11.00;;;6.80;;
15293;SDS011;7748;52.474;13.454;2023-03-01T10:16:38;10.20;;;6.50;;
15293;SDS011;7748;52.474;13.454;2023-03-01T10:19:11;8.40;;;5.60;;
15293;SDS011;7748;52.474;13.454;2023-03-01T10:21:49;11.20;;;6.07;;
15293;SDS011;7748;52.474;13.454;2023-03-01T10:24:20;15.60;;;5.53;;
15293;SDS011;7748;52.474;13.454;2023-03-01T10:26:51;11.53;;;5.97;;
15293;SDS011;7748;52.474;13.454;2023-03-01T10:29:23;11.03;;;5.63;;
15293;SDS011;7748;52.474;13.454;2023-03-01T10:31:57;7.27;;;5.27;;
15293;SDS011;7748;52.474;13.454;2023-03-01T10:34:31;8.83;;;5.63;;
15293;SDS011;7748;52.474;13.454;2023-03-01T10:37:01;14.83;;;6.00;;
15293;SDS011;7748;52.474;13.454;2023-03-01T10:39:41;15.03;;;7.67;;
15293;SDS011;7748;52.474;13.454;2023-03-01T10:42:25;10.23;;;4.50;;
15293;SDS011;7748;52.474;13.454;2023-03-01T10:44:56;12.87;;;4.97;;
15293;SDS011;7748;52.474;13.454;2023-03-01T10:47:26;9.70;;;5.03;;
15293;SDS011;7748;52.474;13.454;2023-03-01T10:49:56;10.90;;;4.17;;
15293;SDS011;7748;52.474;13.454;2023-03-01T10:52:27;8.47;;;4.60;;
15293;SDS011;7748;52.474;13.454;2023-03-01T10:54:59;12.80;;;4.27;;
15293;SDS011;7748;52.474;13.454;2023-03-01T10:57:31;8.00;;;4.87;;
15293;SDS011;7748;52.474;13.454;2023-03-01T11:03:09;11.03;;;4.67;;
15293;SDS011;7748;52.474;13.454;2023-03-01T11:05:50;12.50;;;4.27;;
15293;SDS011;7748;52.474;13.454;2023-03-01T11:08:34;14.77;;;4.33;;
15293;SDS011;7748;52.474;13.454;2023-03-01T11:11:09;10.27;;;4.93;;
15293;SDS011;7748;52.474;13.454;2023-03-01T11:13:49;8.23;;;4.50;;
15293;SDS011;7748;52.474;13.454;2023-03-01T11:16:24;6.03;;;4.23;;
15293;SDS011;7748;52.474;13.454;2023-03-01T11:18:58;10.07;;;5.00;;
15293;SDS011;7748;52.474;13.454;2023-03-01T11:21:30;7.83;;;4.37;;
15293;SDS011;7748;52.474;13.454;2023-03-01T11:24:01;6.40;;;4.20;;
15293;SDS011;7748;52.474;13.454;2023-03-01T11:26:34;7.23;;;3.77;;
15293;SDS011;7748;52.474;13.454;2023-03-01T11:29:07;6.37;;;3.70;;
15293;SDS011;7748;52.474;13.454;2023-03-01T11:31:42;10.20;;;6.23;;
15293;SDS011;7748;52.474;13.454;2023-03-01T11:34:23;6.67;;;4.20;;
15293;SDS011;7748;52.474;13.454;2023-03-01T11:37:05;8.17;;;4.33;;
15293;SDS011;7748;52.474;13.454;2023-03-01T11:39:43;8.10;;;4.50;;
15293;SDS011;7748;52.474;13.454;2023-03-01T11:42:21;12.03;;;4.20;;
15293;SDS011;7748;52.474;13.454;2023-03-01T11:44:58;7.60;;;4.17;;
15293;SDS011;7748;52.474;13.454;2023-03-01T11:47:32;16.47;;;4.80;;
15293;SDS011;7748;52.474;13.454;2023-03-01T11:50:15;10.60;;;4.30;;
15293;SDS011;7748;52.474;13.454;2023-03-01T11:52:54;7.37;;;4.03;;
15293;SDS011;7748;52.474;13.454;2023-03-01T11:55:45;6.70;;;4.83;;
15293;SDS011;7748;52.474;13.454;2023-03-01T11:58:38;8.50;;;3.13;;
15293;SDS011;7748;52.474;13.454;2023-03-01T12:01:30;6.07;;;3.07;;
15293;SDS011;7748;52.474;13.454;2023-03-01T12:04:20;3.87;;;2.87;;
15293;SDS011;7748;52.474;13.454;2023-03-01T12:07:32;3.40;;;2.87;;
15293;SDS011;7748;52.474;13.454;2023-03-01T12:10:18;6.47;;;3.10;;
15293;SDS011;7748;52.474;13.454;2023-03-01T12:12:55;4.20;;;2.93;;
15293;SDS011;7748;52.474;13.454;2023-03-01T12:15:46;6.30;;;3.47;;
15293;SDS011;7748;52.474;13.454;2023-03-01T12:18:44;6.90;;;3.90;;
15293;SDS011;7748;52.474;13.454;2023-03-01T12:21:40;10.80;;;4.17;;
15293;SDS011;7748;52.474;13.454;2023-03-01T12:24:23;7.47;;;3.50;;
15293;SDS011;7748;52.474;13.454;2023-03-01T12:27:09;6.43;;;3.70;;
15293;SDS011;7748;52.474;13.454;2023-03-01T12:29:50;9.07;;;4.27;;
15293;SDS011;7748;52.474;13.454;2023-03-01T12:32:30;7.40;;;3.90;;
15293;SDS011;7748;52.474;13.454;2023-03-01T12:38:15;5.30;;;3.10;;
15293;SDS011;7748;52.474;13.454;2023-03-01T12:41:10;5.50;;;2.87;;
15293;SDS011;7748;52.474;13.454;2023-03-01T12:43:58;6.07;;;3.30;;
15293;SDS011;7748;52.474;13.454;2023-03-01T12:46:44;7.00;;;3.10;;
15293;SDS011;7748;52.474;13.454;2023-03-01T12:49:23;9.00;;;3.00;;
15293;SDS011;7748;52.474;13.454;2023-03-01T12:51:56;7.47;;;2.87;;
15293;SDS011;7748;52.474;13.454;2023-03-01T12:54:29;6.93;;;3.33;;
15293;SDS011;7748;52.474;13.454;2023-03-01T12:57:00;5.17;;;4.13;;
15293;SDS011;7748;52.474;13.454;2023-03-01T12:59:39;9.10;;;4.43;;
15293;SDS011;7748;52.474;13.454;2023-03-01T13:02:18;8.17;;;4.17;;
15293;SDS011;7748;52.474;13.454;2023-03-01T13:04:57;6.77;;;2.80;;
15293;SDS011;7748;52.474;13.454;2023-03-01T13:07:35;9.97;;;3.07;;
15293;SDS011;7748;52.474;13.454;2023-03-01T13:10:11;3.93;;;2.50;;
15293;SDS011;7748;52.474;13.454;2023-03-01T13:12:49;3.60;;;2.50;;
15293;SDS011;7748;52.474;13.454;2023-03-01T13:15:26;3.13;;;2.37;;
15293;SDS011;7748;52.474;13.454;2023-03-01T13:17:56;2.77;;;2.43;;
15293;SDS011;7748;52.474;13.454;2023-03-01T13:20:29;7.53;;;2.73;;
15293;SDS011;7748;52.474;13.454;2023-03-01T13:23:01;7.23;;;3.07;;
15293;SDS011;7748;52.474;13.454;2023-03-01T13:34:47;9.50;;;3.20;;
15293;SDS011;7748;52.474;13.454;2023-03-01T13:37:22;6.57;;;2.80;;
15293;SDS011;7748;52.474;13.454;2023-03-01T13:39:56;7.60;;;3.13;;
15293;SDS011;7748;52.474;13.454;2023-03-01T13:42:32;3.10;;;2.80;;
15293;SDS011;7748;52.474;13.454;2023-03-01T13:45:04;7.07;;;2.80;;
15293;SDS011;7748;52.474;13.454;2023-03-01T13:47:43;7.23;;;4.97;;
15293;SDS011;7748;52.474;13.454;2023-03-01T13:50:18;4.30;;;2.60;;
15293;SDS011;7748;52.474;13.454;2023-03-01T13:52:54;4.87;;;2.80;;
15293;SDS011;7748;52.474;13.454;2023-03-01T13:55:27;15.93;;;5.17;;
15293;SDS011;7748;52.474;13.454;2023-03-01T13:58:03;5.63;;;3.10;;
15293;SDS011;7748;52.474;13.454;2023-03-01T14:00:41;4.37;;;2.90;;
15293;SDS011;7748;52.474;13.454;2023-03-01T14:03:11;2.67;;;2.37;;
15293;SDS011;7748;52.474;13.454;2023-03-01T14:05:43;16.00;;;3.90;;
15293;SDS011;7748;52.474;13.454;2023-03-01T14:08:40;3.87;;;2.53;;
15293;SDS011;7748;52.474;13.454;2023-03-01T14:14:30;5.17;;;2.87;;
15293;SDS011;7748;52.474;13.454;2023-03-01T14:17:13;4.10;;;3.00;;
15293;SDS011;7748;52.474;13.454;2023-03-01T14:19:55;5.67;;;3.23;;
15293;SDS011;7748;52.474;13.454;2023-03-01T14:22:25;4.60;;;2.90;;
15293;SDS011;7748;52.474;13.454;2023-03-01T14:24:56;7.77;;;3.03;;
15293;SDS011;7748;52.474;13.454;2023-03-01T14:27:27;6.13;;;3.73;;
15293;SDS011;7748;52.474;13.454;2023-03-01T14:30:01;12.90;;;3.80;;
15293;SDS011;7748;52.474;13.454;2023-03-01T14:32:31;6.83;;;3.57;;
15293;SDS011;7748;52.474;13.454;2023-03-01T14:34:59;4.80;;;3.30;;
15293;SDS011;7748;52.474;13.454;2023-03-01T14:37:28;3.83;;;2.67;;
15293;SDS011;7748;52.474;13.454;2023-03-01T14:39:59;4.60;;;3.00;;
15293;SDS011;7748;52.474;13.454;2023-03-01T14:42:29;6.20;;;3.43;;
15293;SDS011;7748;52.474;13.454;2023-03-01T14:45:01;3.53;;;3.00;;
15293;SDS011;7748;52.474;13.454;2023-03-01T14:47:31;5.40;;;2.97;;
15293;SDS011;7748;52.474;13.454;2023-03-01T14:50:02;10.43;;;2.90;;
15293;SDS011;7748;52.474;13.454;2023-03-01T14:52:34;4.90;;;3.37;;
15293;SDS011;7748;52.474;13.454;2023-03-01T14:55:12;5.63;;;3.30;;
15293;SDS011;7748;52.474;13.454;2023-03-01T14:57:44;6.13;;;3.27;;
15293;SDS011;7748;52.474;13.454;2023-03-01T15:00:16;16.30;;;3.90;;
15293;SDS011;7748;52.474;13.454;2023-03-01T15:02:50;11.60;;;5.67;;
15293;SDS011;7748;52.474;13.454;2023-03-01T15:05:22;5.13;;;3.43;;
15293;SDS011;7748;52.474;13.454;2023-03-01T15:07:54;11.73;;;4.33;;
15293;SDS011;7748;52.474;13.454;2023-03-01T15:10:27;8.27;;;3.30;;
15293;SDS011;7748;52.474;13.454;2023-03-01T15:12:56;6.13;;;3.87;;
15293;SDS011;7748;52.474;13.454;2023-03-01T15:15:38;9.00;;;3.40;;
15293;SDS011;7748;52.474;13.454;2023-03-01T15:18:16;7.57;;;3.97;;
15293;SDS011;7748;52.474;13.454;2023-03-01T15:20:45;5.40;;;3.23;;
15293;SDS011;7748;52.474;13.454;2023-03-01T15:23:20;5.70;;;4.00;;
15293;SDS011;7748;52.474;13.454;2023-03-01T15:25:52;6.67;;;3.20;;
15293;SDS011;7748;52.474;13.454;2023-03-01T15:28:24;7.67;;;3.53;;
15293;SDS011;7748;52.474;13.454;2023-03-01T15:30:58;8.67;;;4.50;;
15293;SDS011;7748;52.474;13.454;2023-03-01T15:33:31;4.63;;;3.23;;
15293;SDS011;7748;52.474;13.454;2023-03-01T15:36:02;5.50;;;3.23;;
15293;SDS011;7748;52.474;13.454;2023-03-01T15:38:52;6.23;;;2.93;;
15293;SDS011;7748;52.474;13.454;2023-03-01T15:41:23;4.77;;;3.10;;
15293;SDS011;7748;52.474;13.454;2023-03-01T15:43:53;10.67;;;4.03;;
15293;SDS011;7748;52.474;13.454;2023-03-01T15:46:23;4.93;;;3.07;;
15293;SDS011;7748;52.474;13.454;2023-03-01T15:48:57;5.27;;;3.00;;
15293;SDS011;7748;52.474;13.454;2023-03-01T15:51:30;5.03;;;2.43;;
15293;SDS011;7748;52.474;13.454;2023-03-01T15:54:02;4.93;;;3.10;;
15293;SDS011;7748;52.474;13.454;2023-03-01T15:56:33;6.40;;;3.60;;